createdAt,value
2023-05-07T00:00:25.428Z,13.38
2023-05-07T00:02:52.897Z,11.48
2023-05-07T00:05:20.959Z,10.27
2023-05-07T00:07:49.072Z,10.82
2023-05-07T00:10:16.604Z,11.93
2023-05-07T00:12:44.098Z,9.68
2023-05-07T00:15:12.288Z,8.52
2023-05-07T00:17:40.016Z,9.57
2023-05-07T00:20:08.820Z,8.50
2023-05-07T00:22:36.515Z,8.38
2023-05-07T00:25:04.241Z,8.90
2023-05-07T00:27:32.075Z,7.35
2023-05-07T00:29:59.406Z,8.43
2023-05-07T00:32:26.754Z,7.88
2023-05-07T00:34:54.335Z,7.82
2023-05-07T00:37:21.821Z,8.10
2023-05-07T00:39:49.138Z,7.88
2023-05-07T00:42:17.255Z,8.02
2023-05-07T00:44:44.858Z,7.10
2023-05-07T00:47:13.269Z,8.18
2023-05-07T00:49:43.667Z,8.65
2023-05-07T00:52:14.156Z,8.02
2023-05-07T00:54:42.590Z,8.10
2023-05-07T00:57:12.403Z,7.85
2023-05-07T00:59:41.843Z,9.02
2023-05-07T01:02:09.330Z,9.65
2023-05-07T01:04:37.747Z,8.05
2023-05-07T01:07:06.506Z,8.32
2023-05-07T01:09:36.379Z,8.90
2023-05-07T01:12:05.057Z,8.18
2023-05-07T01:14:34.114Z,8.23
2023-05-07T01:17:02.093Z,7.00
2023-05-07T01:19:31.445Z,6.55
2023-05-07T01:22:08.430Z,5.95
2023-05-07T01:24:37.438Z,6.63
2023-05-07T01:27:05.465Z,5.50
2023-05-07T01:29:32.975Z,5.68
2023-05-07T01:32:02.323Z,5.78
2023-05-07T01:34:33.920Z,5.20
2023-05-07T01:37:02.283Z,5.72
2023-05-07T01:39:31.086Z,5.57
2023-05-07T01:41:59.810Z,6.78
2023-05-07T01:44:28.193Z,5.97
2023-05-07T01:46:56.200Z,6.75
2023-05-07T01:49:23.625Z,5.95
2023-05-07T01:51:51.787Z,6.18
2023-05-07T01:54:19.371Z,5.93
2023-05-07T01:56:49.118Z,6.45
2023-05-07T01:59:16.511Z,6.22
2023-05-07T02:01:43.856Z,6.20
2023-05-07T02:04:11.590Z,6.63
2023-05-07T02:06:39.008Z,7.00
2023-05-07T02:09:06.591Z,6.65
2023-05-07T02:11:33.983Z,6.53
2023-05-07T02:14:01.514Z,6.85
2023-05-07T02:16:29.028Z,6.15
2023-05-07T02:18:56.541Z,6.03
2023-05-07T02:21:23.866Z,5.70
2023-05-07T02:23:51.791Z,6.20
2023-05-07T02:26:19.794Z,5.88
2023-05-07T02:28:47.155Z,6.35
2023-05-07T02:31:14.534Z,6.05
2023-05-07T02:33:42.076Z,6.53
2023-05-07T02:36:11.006Z,6.03
2023-05-07T02:38:38.827Z,6.00
2023-05-07T02:41:06.306Z,6.57
2023-05-07T02:43:33.854Z,6.45
2023-05-07T02:46:09.169Z,6.75
2023-05-07T02:48:36.650Z,5.60
2023-05-07T02:51:04.864Z,7.60
2023-05-07T02:53:32.711Z,6.43
2023-05-07T02:56:01.331Z,6.50
2023-05-07T02:58:28.978Z,7.47
2023-05-07T03:00:56.556Z,6.32
2023-05-07T03:03:24.011Z,8.07
2023-05-07T03:05:51.432Z,9.32
2023-05-07T03:08:18.902Z,6.70
2023-05-07T03:10:46.420Z,8.25
2023-05-07T03:13:13.882Z,9.23
2023-05-07T03:15:41.373Z,7.70
2023-05-07T03:18:09.006Z,9.48
2023-05-07T03:20:37.468Z,8.52
2023-05-07T03:23:05.193Z,9.27
2023-05-07T03:25:33.432Z,9.15
2023-05-07T03:28:01.060Z,10.00
2023-05-07T03:30:28.531Z,10.80
2023-05-07T03:32:55.889Z,10.40
2023-05-07T03:35:23.754Z,11.80
2023-05-07T03:37:51.883Z,12.25
2023-05-07T03:40:19.284Z,11.38
2023-05-07T03:42:46.681Z,10.77
2023-05-07T03:45:14.168Z,10.88
2023-05-07T03:47:41.630Z,11.13
2023-05-07T03:50:09.596Z,12.30
2023-05-07T03:52:37.685Z,11.90
2023-05-07T03:55:05.467Z,12.02
2023-05-07T03:57:32.966Z,11.30
2023-05-07T04:00:00.314Z,12.32
2023-05-07T04:02:27.755Z,11.85
2023-05-07T04:04:55.803Z,10.93
2023-05-07T04:07:23.516Z,11.48
2023-05-07T04:09:51.001Z,12.50
2023-05-07T04:12:18.310Z,11.73
2023-05-07T04:14:46.210Z,11.75
2023-05-07T04:17:13.590Z,11.68
2023-05-07T04:19:40.962Z,12.35
2023-05-07T04:22:08.358Z,12.52
2023-05-07T04:24:35.812Z,13.25
2023-05-07T04:27:03.132Z,11.77
2023-05-07T04:29:30.602Z,11.38
2023-05-07T04:31:59.865Z,10.95
2023-05-07T04:34:27.256Z,10.93
2023-05-07T04:36:54.590Z,11.10
2023-05-07T04:39:22.095Z,12.82
2023-05-07T04:41:49.914Z,12.73
2023-05-07T04:44:17.839Z,12.25
2023-05-07T04:46:45.300Z,11.68
2023-05-07T04:49:12.640Z,12.95
2023-05-07T04:51:40.212Z,12.50
2023-05-07T04:54:07.581Z,12.32
2023-05-07T04:56:35.044Z,11.82
2023-05-07T04:59:03.340Z,10.75
2023-05-07T05:01:30.852Z,12.10
2023-05-07T05:03:58.346Z,10.98
2023-05-07T05:06:25.838Z,12.95
2023-05-07T05:08:53.309Z,12.25
2023-05-07T05:11:20.846Z,12.82
2023-05-07T05:13:50.266Z,13.90
2023-05-07T05:16:17.766Z,14.57
2023-05-07T05:18:45.216Z,15.10
2023-05-07T05:21:12.640Z,13.05
2023-05-07T05:23:40.174Z,12.77
2023-05-07T05:26:07.492Z,12.68
2023-05-07T05:28:34.776Z,15.40
2023-05-07T05:31:02.658Z,14.45
2023-05-07T05:33:30.084Z,12.60
2023-05-07T05:35:57.474Z,15.55
2023-05-07T05:38:24.783Z,16.15
2023-05-07T05:40:52.683Z,12.07
2023-05-07T05:43:20.939Z,13.38
2023-05-07T05:45:48.351Z,13.57
2023-05-07T05:48:15.962Z,14.23
2023-05-07T05:50:43.669Z,12.55
2023-05-07T05:53:11.027Z,12.90
2023-05-07T05:55:38.513Z,12.95
2023-05-07T05:58:06.099Z,11.30
2023-05-07T06:00:33.532Z,13.18
2023-05-07T06:03:01.145Z,11.93
2023-05-07T06:05:28.645Z,13.52
2023-05-07T06:07:56.586Z,12.73
2023-05-07T06:10:25.333Z,11.93
2023-05-07T06:12:52.720Z,12.02
2023-05-07T06:15:20.309Z,12.52
2023-05-07T06:17:47.700Z,12.00
2023-05-07T06:20:15.057Z,11.98
2023-05-07T06:22:42.555Z,11.82
2023-05-07T06:25:10.322Z,11.77
2023-05-07T06:27:37.848Z,11.02
2023-05-07T06:30:05.808Z,11.93
2023-05-07T06:32:33.475Z,11.93
2023-05-07T06:35:01.061Z,12.98
2023-05-07T06:37:28.539Z,12.05
2023-05-07T06:39:57.576Z,12.98
2023-05-07T06:42:27.517Z,12.27
2023-05-07T06:44:57.930Z,13.95
2023-05-07T06:47:25.569Z,12.70
2023-05-07T06:49:52.912Z,11.50
2023-05-07T06:52:20.382Z,13.23
2023-05-07T06:54:47.721Z,12.00
2023-05-07T06:57:15.077Z,13.85
2023-05-07T06:59:42.565Z,12.27
2023-05-07T07:02:10.258Z,12.23
2023-05-07T07:04:37.573Z,12.77
2023-05-07T07:07:04.910Z,11.57
2023-05-07T07:09:32.813Z,19.60
2023-05-07T07:12:00.270Z,14.25
2023-05-07T07:14:27.566Z,19.23
2023-05-07T07:16:55.209Z,13.02
2023-05-07T07:19:22.725Z,12.95
2023-05-07T07:21:50.244Z,11.43
2023-05-07T07:24:22.029Z,13.50
2023-05-07T07:26:49.526Z,13.70
2023-05-07T07:29:17.189Z,12.32
2023-05-07T07:31:44.700Z,11.70
2023-05-07T07:34:12.014Z,11.85
2023-05-07T07:36:46.163Z,11.95
2023-05-07T07:39:14.262Z,10.05
2023-05-07T07:41:41.586Z,10.98
2023-05-07T07:44:10.222Z,11.40
2023-05-07T07:46:38.791Z,10.65
2023-05-07T07:49:06.185Z,11.02
2023-05-07T07:51:33.782Z,10.90
2023-05-07T07:54:02.179Z,10.25
2023-05-07T07:56:29.528Z,10.98
2023-05-07T07:58:56.849Z,10.10
2023-05-07T08:01:24.478Z,9.93
2023-05-07T08:03:51.901Z,9.23
2023-05-07T08:06:19.785Z,8.75
2023-05-07T08:08:47.138Z,8.65
2023-05-07T08:11:14.476Z,8.57
2023-05-07T08:13:41.912Z,8.50
2023-05-07T08:16:09.455Z,8.55
2023-05-07T08:18:36.779Z,7.93
2023-05-07T08:21:04.295Z,7.47
2023-05-07T08:23:31.799Z,8.55
2023-05-07T08:25:59.371Z,7.90
2023-05-07T08:28:26.999Z,9.00
2023-05-07T08:30:54.324Z,8.18
2023-05-07T08:33:22.324Z,6.97
2023-05-07T08:35:49.575Z,8.48
2023-05-07T08:38:17.071Z,8.05
2023-05-07T08:40:44.480Z,8.27
2023-05-07T08:43:15.632Z,8.63
2023-05-07T08:45:46.646Z,8.93
2023-05-07T08:48:17.332Z,7.53
2023-05-07T08:50:44.881Z,7.53
2023-05-07T08:53:13.404Z,6.97
2023-05-07T08:55:41.243Z,6.90
2023-05-07T08:58:08.940Z,4.88
2023-05-07T09:00:38.798Z,5.07
2023-05-07T09:03:06.393Z,5.10
2023-05-07T09:05:33.824Z,7.22
2023-05-07T09:08:04.005Z,8.00
2023-05-07T09:10:33.663Z,7.05
2023-05-07T09:13:01.464Z,6.45
2023-05-07T09:15:30.009Z,6.45
2023-05-07T09:18:02.559Z,6.97
2023-05-07T09:20:32.548Z,7.07
2023-05-07T09:22:59.955Z,8.38
2023-05-07T09:25:32.434Z,7.68
2023-05-07T09:28:01.159Z,7.07
2023-05-07T09:30:32.736Z,6.90
2023-05-07T09:33:02.128Z,6.10
2023-05-07T09:35:31.013Z,6.78
2023-05-07T09:38:01.683Z,6.10
2023-05-07T09:40:32.197Z,5.95
2023-05-07T09:43:14.987Z,7.00
2023-05-07T09:45:42.539Z,5.95
2023-05-07T09:48:11.303Z,6.78
2023-05-07T09:50:49.799Z,6.35
2023-05-07T09:53:18.528Z,5.93
2023-05-07T09:55:47.138Z,6.40
2023-05-07T09:58:16.064Z,5.85
2023-05-07T10:00:44.331Z,6.68
2023-05-07T10:03:12.858Z,5.85
2023-05-07T10:05:40.499Z,5.60
2023-05-07T10:08:08.873Z,7.18
2023-05-07T10:10:36.540Z,6.97
2023-05-07T10:13:07.094Z,5.93
2023-05-07T10:15:36.043Z,6.63
2023-05-07T10:18:05.462Z,6.35
2023-05-07T10:20:34.314Z,6.50
2023-05-07T10:23:05.816Z,7.38
2023-05-07T10:25:34.409Z,7.18
2023-05-07T10:28:13.610Z,7.03
2023-05-07T10:31:02.205Z,6.57
2023-05-07T10:33:32.076Z,6.18
2023-05-07T10:36:02.591Z,6.28
2023-05-07T10:38:31.375Z,7.07
2023-05-07T10:40:58.905Z,6.32
2023-05-07T10:43:26.389Z,6.63
2023-05-07T10:46:20.664Z,6.05
2023-05-07T10:49:09.431Z,7.03
2023-05-07T10:51:37.304Z,6.38
2023-05-07T10:54:10.816Z,5.97
2023-05-07T10:56:39.191Z,6.57
2023-05-07T10:59:33.433Z,6.05
2023-05-07T11:02:07.434Z,6.03
2023-05-07T11:04:36.239Z,6.18
2023-05-07T11:07:10.252Z,7.38
2023-05-07T11:09:52.965Z,6.70
2023-05-07T11:12:42.105Z,6.47
2023-05-07T11:15:14.372Z,7.72
2023-05-07T11:17:56.294Z,6.72
2023-05-07T11:20:51.745Z,6.70
2023-05-07T11:23:34.467Z,7.45
2023-05-07T11:26:05.978Z,5.93
2023-05-07T11:28:42.904Z,6.20
2023-05-07T11:31:11.776Z,6.45
2023-05-07T11:33:39.647Z,6.32
2023-05-07T11:36:09.653Z,6.03
2023-05-07T11:38:38.509Z,6.53
2023-05-07T11:41:06.284Z,6.13
2023-05-07T11:43:34.244Z,5.68
2023-05-07T11:46:13.635Z,5.78
2023-05-07T11:48:42.477Z,6.78
2023-05-07T11:51:10.162Z,5.20
2023-05-07T11:53:42.597Z,5.65
2023-05-07T11:56:14.856Z,5.25
2023-05-07T11:58:43.506Z,5.15
2023-05-07T12:01:12.369Z,5.28
2023-05-07T12:03:47.049Z,5.63
2023-05-07T12:06:18.378Z,4.22
2023-05-07T12:08:48.364Z,4.45
2023-05-07T12:11:19.025Z,4.85
2023-05-07T12:13:46.888Z,5.70
2023-05-07T12:16:15.239Z,5.32
2023-05-07T12:18:43.094Z,5.10
2023-05-07T12:21:11.000Z,4.53
2023-05-07T12:23:39.441Z,4.45
2023-05-07T12:26:07.791Z,4.82
2023-05-07T12:28:40.330Z,4.50
2023-05-07T12:31:08.934Z,5.63
2023-05-07T12:33:37.298Z,5.85
2023-05-07T12:36:07.728Z,5.93
2023-05-07T12:38:41.958Z,5.38
2023-05-07T12:41:11.144Z,5.78
2023-05-07T12:43:38.954Z,6.07
2023-05-07T12:46:08.236Z,5.40
2023-05-07T12:48:38.853Z,4.50
2023-05-07T12:51:07.780Z,5.88
2023-05-07T12:53:40.552Z,5.85
2023-05-07T12:56:07.968Z,5.05
2023-05-07T12:58:36.936Z,6.15
2023-05-07T13:01:10.853Z,5.45
2023-05-07T13:03:40.506Z,4.45
2023-05-07T13:06:13.860Z,5.82
2023-05-07T13:08:45.782Z,4.15
2023-05-07T13:11:13.795Z,5.53
2023-05-07T13:13:42.455Z,5.63
2023-05-07T13:16:11.980Z,4.97
2023-05-07T13:18:41.588Z,4.72
2023-05-07T13:21:09.178Z,4.00
2023-05-07T13:23:36.562Z,4.18
2023-05-07T13:26:08.449Z,6.20
2023-05-07T13:28:38.956Z,5.00
2023-05-07T13:31:06.683Z,5.07
2023-05-07T13:33:34.024Z,5.93
2023-05-07T13:36:01.827Z,4.70
2023-05-07T13:38:29.133Z,5.00
2023-05-07T13:40:56.908Z,4.88
2023-05-07T13:43:24.550Z,4.93
2023-05-07T13:45:51.932Z,5.22
2023-05-07T13:48:19.508Z,4.55
2023-05-07T13:50:46.856Z,4.65
2023-05-07T13:53:14.222Z,4.55
2023-05-07T13:55:41.712Z,5.05
2023-05-07T13:58:09.072Z,4.30
2023-05-07T14:00:36.601Z,4.30
2023-05-07T14:03:05.809Z,4.85
2023-05-07T14:05:33.222Z,4.93
2023-05-07T14:08:00.942Z,4.40
2023-05-07T14:10:28.620Z,5.53
2023-05-07T14:12:56.154Z,5.30
2023-05-07T14:15:23.502Z,4.95
2023-05-07T14:17:50.864Z,4.40
2023-05-07T14:20:18.271Z,4.38
2023-05-07T14:22:46.208Z,5.53
2023-05-07T14:25:14.071Z,4.47
2023-05-07T14:27:41.703Z,4.03
2023-05-07T14:30:09.479Z,4.60
2023-05-07T14:32:37.811Z,6.60
2023-05-07T14:35:05.832Z,4.85
2023-05-07T14:37:33.207Z,4.53
2023-05-07T14:40:01.198Z,3.58
2023-05-07T14:42:28.490Z,3.92
2023-05-07T14:44:55.928Z,4.15
2023-05-07T14:47:24.429Z,3.60
2023-05-07T14:49:52.236Z,4.15
2023-05-07T14:52:19.954Z,3.13
2023-05-07T14:54:47.504Z,3.90
2023-05-07T14:57:17.326Z,4.03
2023-05-07T14:59:44.869Z,3.67
2023-05-07T15:02:16.528Z,4.78
2023-05-07T15:04:47.153Z,4.15
2023-05-07T15:07:16.414Z,4.90
2023-05-07T15:09:44.570Z,4.80
2023-05-07T15:12:12.813Z,3.63
2023-05-07T15:14:41.147Z,3.25
2023-05-07T15:17:08.826Z,3.92
2023-05-07T15:19:36.163Z,3.90
2023-05-07T15:22:04.016Z,3.85
2023-05-07T15:24:31.922Z,3.33
2023-05-07T15:26:59.431Z,4.00
2023-05-07T15:29:26.819Z,4.22
2023-05-07T15:31:54.295Z,3.83
2023-05-07T15:34:23.512Z,4.60
2023-05-07T15:36:51.159Z,3.70
2023-05-07T15:39:18.658Z,3.13
2023-05-07T15:41:46.227Z,3.10
2023-05-07T15:44:13.740Z,3.20
2023-05-07T15:46:41.064Z,3.47
2023-05-07T15:49:08.579Z,3.70
2023-05-07T15:51:37.083Z,4.38
2023-05-07T15:54:04.745Z,3.28
2023-05-07T15:56:35.325Z,10.90
2023-05-07T15:59:02.673Z,3.80
2023-05-07T16:01:30.341Z,3.70
2023-05-07T16:03:58.073Z,3.47
2023-05-07T16:06:25.478Z,2.88
2023-05-07T16:08:52.813Z,3.35
2023-05-07T16:11:23.395Z,3.45
2023-05-07T16:13:53.645Z,3.20
2023-05-07T16:16:21.347Z,2.97
2023-05-07T16:18:48.759Z,3.55
2023-05-07T16:21:16.247Z,3.58
2023-05-07T16:23:43.516Z,3.90
2023-05-07T16:26:11.065Z,2.63
2023-05-07T16:28:38.608Z,2.75
2023-05-07T16:31:08.543Z,3.03
2023-05-07T16:33:36.407Z,2.72
2023-05-07T16:36:03.959Z,5.57
2023-05-07T16:38:33.220Z,5.90
2023-05-07T16:41:01.331Z,3.58
2023-05-07T16:43:28.802Z,2.97
2023-05-07T16:45:56.270Z,4.13
2023-05-07T16:48:23.630Z,4.93
2023-05-07T16:50:51.222Z,4.15
2023-05-07T16:53:18.613Z,7.38
2023-05-07T16:55:46.193Z,3.60
2023-05-07T16:58:13.744Z,2.95
2023-05-07T17:00:50.575Z,3.13
2023-05-07T17:03:19.241Z,2.60
2023-05-07T17:05:47.143Z,3.20
2023-05-07T17:08:14.749Z,3.22
2023-05-07T17:10:42.473Z,3.22
2023-05-07T17:13:09.858Z,2.60
2023-05-07T17:15:37.476Z,2.42
2023-05-07T17:18:04.992Z,2.58
2023-05-07T17:20:32.545Z,2.15
2023-05-07T17:22:59.881Z,5.40
2023-05-07T17:25:27.207Z,2.08
2023-05-07T17:27:54.674Z,4.07
2023-05-07T17:30:22.067Z,3.20
2023-05-07T17:32:52.003Z,2.30
2023-05-07T17:35:19.408Z,2.83
2023-05-07T17:37:52.780Z,2.53
2023-05-07T17:40:22.309Z,2.15
2023-05-07T17:42:51.320Z,2.15
2023-05-07T17:45:20.561Z,2.05
2023-05-07T17:47:47.895Z,2.33
2023-05-07T17:50:15.238Z,2.28
2023-05-07T17:52:42.759Z,2.15
2023-05-07T17:55:12.875Z,2.10
2023-05-07T17:57:41.232Z,2.60
2023-05-07T18:00:10.322Z,2.97
2023-05-07T18:02:38.229Z,2.05
2023-05-07T18:05:06.015Z,1.80
2023-05-07T18:07:33.865Z,2.45
2023-05-07T18:10:01.265Z,2.70
2023-05-07T18:12:28.569Z,3.00
2023-05-07T18:14:55.878Z,2.72
2023-05-07T18:17:24.395Z,3.22
2023-05-07T18:19:54.660Z,2.83
2023-05-07T18:22:22.267Z,2.80
2023-05-07T18:24:50.674Z,2.40
2023-05-07T18:27:18.613Z,3.30
2023-05-07T18:29:45.972Z,3.00
2023-05-07T18:32:13.963Z,2.95
2023-05-07T18:34:41.467Z,2.70
2023-05-07T18:37:09.065Z,2.70
2023-05-07T18:39:36.729Z,2.53
2023-05-07T18:42:05.421Z,2.50
2023-05-07T18:44:33.371Z,2.28
2023-05-07T18:47:00.738Z,2.95
2023-05-07T18:49:28.228Z,3.13
2023-05-07T18:51:55.524Z,2.60
2023-05-07T18:54:23.089Z,2.58
2023-05-07T18:56:50.584Z,2.33
2023-05-07T18:59:17.955Z,2.10
2023-05-07T19:01:46.105Z,3.50
2023-05-07T19:04:13.719Z,2.92
2023-05-07T19:06:41.117Z,2.38
2023-05-07T19:09:08.725Z,2.50
2023-05-07T19:11:36.651Z,2.38
2023-05-07T19:14:05.399Z,2.58
2023-05-07T19:16:36.203Z,2.65
2023-05-07T19:19:04.480Z,2.80
2023-05-07T19:21:32.161Z,3.15
2023-05-07T19:23:59.494Z,2.85
2023-05-07T19:26:26.812Z,3.65
2023-05-07T19:29:07.195Z,2.95
2023-05-07T19:31:41.534Z,3.33
2023-05-07T19:34:08.973Z,2.80
2023-05-07T19:36:38.329Z,3.00
2023-05-07T19:39:06.343Z,3.35
2023-05-07T19:41:33.812Z,3.25
2023-05-07T19:44:01.245Z,3.92
2023-05-07T19:46:29.024Z,3.60
2023-05-07T19:48:56.515Z,3.67
2023-05-07T19:51:24.395Z,3.03
2023-05-07T19:53:51.865Z,3.67
2023-05-07T19:56:19.408Z,3.90
2023-05-07T19:58:46.746Z,3.60
2023-05-07T20:01:14.249Z,4.07
2023-05-07T20:03:42.197Z,3.63
2023-05-07T20:06:09.654Z,3.53
2023-05-07T20:08:37.000Z,4.10
2023-05-07T20:11:04.575Z,4.63
2023-05-07T20:13:31.959Z,4.72
2023-05-07T20:16:03.305Z,5.13
2023-05-07T20:18:30.794Z,5.68
2023-05-07T20:20:58.217Z,5.45
2023-05-07T20:23:26.588Z,5.18
2023-05-07T20:25:54.152Z,4.90
2023-05-07T20:28:21.545Z,4.55
2023-05-07T20:41:31.368Z,4.55
2023-05-07T20:43:58.815Z,4.95
2023-05-07T20:46:27.683Z,5.30
2023-05-07T20:49:00.147Z,4.55
2023-05-07T20:51:27.801Z,5.93
2023-05-07T20:53:55.402Z,5.80
2023-05-07T20:56:22.781Z,6.20
2023-05-07T20:58:50.119Z,5.95
2023-05-07T21:01:17.673Z,6.28
2023-05-07T21:03:45.011Z,7.60
2023-05-07T21:06:12.660Z,6.68
2023-05-07T21:08:40.165Z,7.03
2023-05-07T21:11:09.884Z,7.03
2023-05-07T21:13:37.234Z,6.15
2023-05-07T21:16:05.029Z,6.95
2023-05-07T21:18:32.798Z,6.65
2023-05-07T21:21:00.106Z,7.57
2023-05-07T21:23:27.616Z,7.57
2023-05-07T21:25:55.191Z,8.13
2023-05-07T21:28:22.731Z,7.88
2023-05-07T21:30:50.130Z,7.53
2023-05-07T21:33:18.489Z,8.18
2023-05-07T21:35:46.003Z,8.73
2023-05-07T21:38:13.951Z,8.18
2023-05-07T21:40:41.380Z,9.93
2023-05-07T21:43:08.734Z,9.52
2023-05-07T21:45:36.110Z,9.52
2023-05-07T21:48:03.633Z,9.55
2023-05-07T21:50:31.118Z,10.50
2023-05-07T21:52:58.788Z,10.70
2023-05-07T21:55:26.164Z,12.75
2023-05-07T21:58:01.975Z,11.52
2023-05-07T22:00:32.977Z,11.15
2023-05-07T22:03:01.152Z,11.93
2023-05-07T22:05:28.718Z,12.45
2023-05-07T22:07:56.072Z,13.18
2023-05-07T22:10:24.081Z,14.27
2023-05-07T22:12:51.587Z,11.82
2023-05-07T22:15:19.271Z,12.82
2023-05-07T22:17:46.650Z,13.02
2023-05-07T22:20:14.837Z,13.07
2023-05-07T22:22:56.160Z,12.52
2023-05-07T22:25:28.082Z,13.45
2023-05-07T22:27:55.514Z,12.98
2023-05-07T22:30:23.344Z,12.70
2023-05-07T22:32:50.869Z,13.55
2023-05-07T22:35:18.298Z,12.45
2023-05-07T22:37:45.636Z,13.88
2023-05-07T22:40:13.792Z,12.70
2023-05-07T22:42:41.399Z,14.38
2023-05-07T22:45:09.297Z,12.77
2023-05-07T22:47:37.297Z,13.20
2023-05-07T22:50:06.526Z,12.07
2023-05-07T22:52:34.637Z,13.07
2023-05-07T22:55:02.189Z,13.55
2023-05-07T22:57:29.780Z,12.95
2023-05-07T22:59:57.554Z,12.73
2023-05-07T23:02:27.006Z,13.63
2023-05-07T23:04:54.952Z,12.95
2023-05-07T23:07:22.378Z,13.68
2023-05-07T23:09:49.991Z,12.55
2023-05-07T23:12:17.366Z,13.43
2023-05-07T23:14:44.796Z,12.80
2023-05-07T23:17:12.391Z,13.02
2023-05-07T23:19:40.149Z,13.43
2023-05-07T23:22:07.749Z,12.32
2023-05-07T23:24:35.212Z,13.30
2023-05-07T23:27:08.988Z,13.02
2023-05-07T23:29:36.348Z,13.48
2023-05-07T23:32:03.857Z,13.68
2023-05-07T23:34:31.864Z,13.38
2023-05-07T23:36:59.235Z,12.63
2023-05-07T23:39:26.929Z,12.27
2023-05-07T23:41:54.518Z,11.82
2023-05-07T23:44:21.895Z,12.23
2023-05-07T23:46:49.681Z,12.30
2023-05-07T23:49:17.280Z,11.88
2023-05-07T23:51:44.682Z,12.43
2023-05-07T23:54:12.181Z,11.35
2023-05-07T23:56:39.509Z,11.45
2023-05-07T23:59:07.079Z,11.73
